• Join FlightAware (Why Join?)
  • Login
  • US Flag GB Flag 
16:05 EDT


 

Airport Tracker/Info


-or-


 

Live Flight TrackerFlight Track Log ✈ PDT4314 ✈ 08-Sep-2013 ✈ KPHL - KBGM

Flight Track Log - Related Links

Times and Time Zones

All times are in EDT time to prevent confusion due to time zone crossing. See the PDT4314 flight status page for this flight to view local times or setup timezone preferences in your user account.

Time Position Orientation Groundspeed Altitude Reporting Facility
EDT Latitude Longitude Course Direction KTS MPH feet Rate Location/Type
17:45 39.9000 -75.2333 351° North 109 125 500  Level Philadelphia TRACON
17:46 39.9000 -75.2500 270° West 112 129 1,200 1,260 Climbing Philadelphia TRACON
17:47 39.9333 -75.2667 339° North 124 143 2,300 840 Climbing Philadelphia TRACON
17:48 40.0672 -75.3005 349° North  Level Estimated
17:48 39.9833 -75.2833 346° North 151 174 3,000  Level Philadelphia TRACON
17:49 40.1330 -75.3147 351° North  Level FlightAware Approximate
17:49 40.0167 -75.2833 360° North 186 214 3,500  Level Philadelphia TRACON
17:50 40.1988 -75.3289 351° North  Level FlightAware Approximate
17:50 40.0833 -75.2833 360° North 185 213 4,100  Level Philadelphia TRACON
17:51 40.2647 -75.3431 351° North  Level FlightAware Approximate
17:51 40.1333 -75.3000 346° North 208 239 4,100  Level Philadelphia TRACON
17:52 40.2000 -75.3333 339° North 214 246 4,000 -120 Descending Philadelphia TRACON
17:54 40.3088 -75.3551 351° North  Level FlightAware Approximate
18:01 40.7697 -75.4500 North  Level FlightAware Approximate
18:02 40.8365 -75.4500 North  Level FlightAware Approximate
18:03 40.9032 -75.4500 North  Level FlightAware Approximate
18:04 40.9699 -75.4500 North  Level FlightAware Approximate
18:05 41.0366 -75.4502 357° North  Level FlightAware Approximate
18:06 41.1033 -75.4554 357° North  Level FlightAware Approximate
18:07 41.1699 -75.4605 357° North  Level FlightAware Approximate
18:08 41.2365 -75.4656 357° North  Level FlightAware Approximate
18:09 41.3032 -75.4667 North  Level FlightAware Approximate
18:10 41.3699 -75.4667 North  Level FlightAware Approximate
18:11 41.4366 -75.4667 North  Level FlightAware Approximate
18:12 41.4961 -75.4960 323° Northwest  Level FlightAware Approximate
18:13 41.5495 -75.5493 323° Northwest  Level FlightAware Approximate
18:14 41.6030 -75.6027 323° Northwest  Level FlightAware Approximate
18:15 41.6564 -75.6562 323° Northwest  Level FlightAware Approximate
18:16 41.7098 -75.7098 323° Northwest  Level FlightAware Approximate
18:17 41.7646 -75.7608 326° Northwest  Level FlightAware Approximate
18:18 41.8196 -75.8115 326° Northwest  Level FlightAware Approximate
18:19 41.8746 -75.8623 325° Northwest  Level FlightAware Approximate
18:20 41.9295 -75.9131 325° Northwest  Level FlightAware Approximate
18:21 41.9832 -75.9665 323° Northwest  Level FlightAware Approximate
18:22 42.0368 -76.0200 323° Northwest  Level FlightAware Approximate
18:23 42.0903 -76.0736 323° Northwest  Level FlightAware Approximate
18:24 42.1439 -76.1272 323° Northwest  Level FlightAware Approximate
18:25 42.1732 -76.0671 62° Northeast  Level FlightAware Approximate
18:26 42.2000 -75.9862 90° East  Level FlightAware Approximate
18:27 42.2000 -75.9667 90° East  Level FlightAware Approximate
18:28 42.2084 -75.9796 90° East  Level Estimated
18:29 42.2084 -75.9796 90° East  Level Estimated
18:30 42.2084 -75.9796 90° East  Level Estimated
18:31 42.2084 -75.9796 90° East  Level Estimated